createdAt,value
2022-10-07T00:01:27.731Z,3.80
2022-10-07T00:03:55.956Z,7.57
2022-10-07T00:06:25.492Z,5.97
2022-10-07T00:08:57.715Z,5.38
2022-10-07T00:11:28.668Z,5.97
2022-10-07T00:14:00.382Z,5.18
2022-10-07T00:16:30.712Z,8.60
2022-10-07T00:19:04.784Z,7.97
2022-10-07T00:21:36.056Z,6.72
2022-10-07T00:24:11.288Z,4.32
2022-10-07T00:26:39.807Z,5.78
2022-10-07T00:29:14.044Z,7.15
2022-10-07T00:31:42.805Z,6.50
2022-10-07T00:34:19.023Z,9.02
2022-10-07T00:36:51.401Z,7.22
2022-10-07T00:39:23.671Z,8.15
2022-10-07T00:41:53.495Z,7.65
2022-10-07T00:44:44.169Z,6.03
2022-10-07T00:47:15.974Z,5.68
2022-10-07T00:49:52.453Z,6.13
2022-10-07T00:52:27.299Z,6.28
2022-10-07T00:54:58.194Z,7.20
2022-10-07T00:57:29.131Z,5.50
2022-10-07T01:00:00.314Z,5.38
2022-10-07T01:02:29.837Z,4.60
2022-10-07T01:05:02.811Z,6.88
2022-10-07T01:07:33.232Z,6.13
2022-10-07T01:10:06.066Z,8.32
2022-10-07T01:12:43.582Z,8.40
2022-10-07T01:15:20.184Z,5.72
2022-10-07T01:17:55.887Z,6.28
2022-10-07T01:20:31.843Z,9.65
2022-10-07T01:23:20.596Z,12.55
2022-10-07T01:26:05.595Z,8.43
2022-10-07T01:28:45.076Z,9.48
2022-10-07T01:31:18.465Z,12.85
2022-10-07T01:33:49.581Z,8.07
2022-10-07T01:36:21.467Z,6.68
2022-10-07T01:39:02.574Z,10.77
2022-10-07T01:41:34.507Z,9.05
2022-10-07T01:44:05.081Z,8.73
2022-10-07T01:46:38.037Z,9.63
2022-10-07T01:49:10.672Z,12.02
2022-10-07T01:51:41.271Z,11.15
2022-10-07T01:54:21.313Z,12.82
2022-10-07T01:57:09.270Z,9.45
2022-10-07T02:00:05.687Z,9.55
2022-10-07T02:02:50.850Z,14.13
2022-10-07T02:05:27.295Z,11.43
2022-10-07T02:08:09.850Z,11.02
2022-10-07T02:10:54.756Z,14.15
2022-10-07T02:13:33.245Z,9.63
2022-10-07T02:16:10.202Z,11.10
2022-10-07T02:18:45.372Z,13.13
2022-10-07T02:21:13.771Z,9.80
2022-10-07T02:23:44.516Z,11.63
2022-10-07T02:26:18.461Z,10.65
2022-10-07T02:29:00.039Z,13.88
2022-10-07T02:31:40.351Z,11.25
2022-10-07T02:34:16.269Z,10.40
2022-10-07T02:36:53.545Z,14.27
2022-10-07T02:39:30.140Z,13.77
2022-10-07T02:42:10.196Z,8.82
2022-10-07T02:44:50.507Z,11.98
2022-10-07T02:47:30.659Z,16.25
2022-10-07T02:50:07.912Z,12.30
2022-10-07T02:52:37.001Z,15.65
2022-10-07T02:55:08.043Z,9.57
2022-10-07T02:57:40.605Z,13.93
2022-10-07T03:00:14.136Z,10.98
2022-10-07T03:02:49.793Z,9.13
2022-10-07T03:05:21.710Z,11.20
2022-10-07T03:07:52.149Z,12.13
2022-10-07T03:10:20.360Z,12.18
2022-10-07T03:12:56.627Z,9.00
2022-10-07T03:15:25.309Z,13.68
2022-10-07T03:17:56.241Z,11.52
2022-10-07T03:20:27.504Z,9.52
2022-10-07T03:22:58.031Z,9.52
2022-10-07T03:25:29.660Z,10.90
2022-10-07T03:27:57.802Z,6.85
2022-10-07T03:30:26.088Z,11.93
2022-10-07T03:33:01.615Z,13.40
2022-10-07T03:35:31.171Z,7.82
2022-10-07T03:37:59.339Z,11.48
2022-10-07T03:40:28.227Z,14.10
2022-10-07T03:42:58.703Z,8.27
2022-10-07T03:45:27.061Z,11.15
2022-10-07T03:47:57.864Z,10.07
2022-10-07T03:51:34.023Z,12.02
2022-10-07T05:14:57.338Z,9.07
2022-10-07T05:21:46.059Z,8.45
2022-10-07T05:32:14.432Z,6.45
2022-10-07T05:34:45.095Z,9.25
2022-10-07T05:37:25.308Z,8.63
2022-10-07T05:39:59.786Z,5.75
2022-10-07T05:42:28.089Z,5.38
2022-10-07T05:44:58.230Z,4.30
2022-10-07T05:48:00.359Z,8.05
2022-10-07T05:50:54.399Z,5.53
2022-10-07T05:53:58.463Z,10.77
2022-10-07T05:57:28.511Z,5.88
2022-10-07T06:27:26.612Z,6.45
2022-10-07T06:29:32.937Z,11.57
2022-10-07T06:39:14.177Z,12.25
2022-10-07T06:41:54.691Z,8.45
2022-10-07T06:44:36.289Z,5.50
2022-10-07T06:47:30.506Z,7.75
2022-10-07T06:50:03.869Z,9.13
2022-10-07T06:52:33.309Z,9.68
2022-10-07T06:55:03.401Z,5.65
2022-10-07T06:57:45.385Z,6.40
2022-10-07T07:00:15.345Z,5.28
2022-10-07T07:02:44.970Z,6.63
2022-10-07T07:05:15.779Z,6.35
2022-10-07T07:08:24.917Z,9.38
2022-10-07T07:11:14.855Z,5.32
2022-10-07T07:13:46.018Z,7.25
2022-10-07T07:16:26.893Z,5.32
2022-10-07T07:18:59.496Z,11.52
2022-10-07T07:21:30.098Z,9.02
2022-10-07T07:24:07.838Z,8.02
2022-10-07T07:26:43.037Z,11.38
2022-10-07T07:29:15.657Z,9.30
2022-10-07T07:31:44.271Z,7.50
2022-10-07T07:34:15.289Z,5.88
2022-10-07T07:36:46.494Z,9.57
2022-10-07T07:39:19.467Z,9.57
2022-10-07T07:41:47.832Z,10.80
2022-10-07T07:44:18.626Z,9.98
2022-10-07T07:46:49.169Z,9.50
2022-10-07T07:49:18.743Z,10.95
2022-10-07T07:51:54.612Z,10.50
2022-10-07T07:54:24.119Z,12.40
2022-10-07T07:56:52.186Z,12.20
2022-10-07T07:59:20.374Z,13.80
2022-10-07T08:01:48.882Z,13.55
2022-10-07T08:04:18.567Z,17.33
2022-10-07T08:06:48.270Z,16.17
2022-10-07T08:09:16.375Z,21.05
2022-10-07T08:11:45.492Z,16.08
2022-10-07T08:14:13.937Z,17.77
2022-10-07T08:16:43.536Z,20.40
2022-10-07T08:19:12.364Z,16.15
2022-10-07T08:21:42.326Z,16.83
2022-10-07T08:24:14.563Z,18.88
2022-10-07T08:26:42.705Z,14.75
2022-10-07T08:29:11.235Z,17.05
2022-10-07T08:31:50.982Z,16.13
2022-10-07T08:34:23.871Z,20.73
2022-10-07T08:36:53.314Z,20.23
2022-10-07T08:39:21.327Z,20.17
2022-10-07T08:41:58.201Z,17.70
2022-10-07T08:44:31.976Z,20.83
2022-10-07T08:47:07.374Z,21.00
2022-10-07T08:49:45.025Z,21.77
2022-10-07T08:52:32.685Z,18.55
2022-10-07T08:55:02.232Z,20.55
2022-10-07T08:57:43.950Z,20.92
2022-10-07T09:00:17.506Z,20.00
2022-10-07T09:03:00.421Z,21.48
2022-10-07T09:05:35.042Z,20.08
2022-10-07T09:08:11.947Z,19.50
2022-10-07T09:10:43.865Z,18.23
2022-10-07T09:13:20.154Z,18.17
2022-10-07T09:15:53.523Z,18.92
2022-10-07T09:18:24.941Z,21.38
2022-10-07T09:20:55.272Z,17.98
2022-10-07T09:23:26.925Z,22.58
2022-10-07T09:25:55.015Z,17.63
2022-10-07T09:28:27.431Z,16.88
2022-10-07T09:30:56.353Z,18.65
2022-10-07T09:33:30.203Z,21.30
2022-10-07T09:36:05.106Z,17.98
2022-10-07T09:38:39.075Z,19.48
2022-10-07T09:41:17.801Z,20.15
2022-10-07T09:44:05.659Z,15.18
2022-10-07T09:46:48.483Z,20.15
2022-10-07T09:49:36.940Z,18.40
2022-10-07T09:52:07.119Z,17.73
2022-10-07T09:54:40.483Z,15.93
2022-10-07T09:57:27.217Z,14.75
2022-10-07T10:00:22.873Z,16.52
2022-10-07T10:02:54.039Z,15.82
2022-10-07T10:05:25.877Z,15.10
2022-10-07T10:08:02.429Z,17.52
2022-10-07T10:10:33.943Z,15.68
2022-10-07T10:13:08.176Z,14.98
2022-10-07T10:15:43.666Z,15.80
2022-10-07T10:18:37.040Z,14.07
2022-10-07T10:21:30.146Z,18.98
2022-10-07T10:24:00.148Z,16.20
2022-10-07T10:29:54.633Z,13.27
2022-10-07T10:32:58.435Z,13.60
2022-10-07T10:38:40.028Z,17.17
2022-10-07T10:44:43.147Z,17.05
2022-10-07T10:47:47.523Z,14.52
2022-10-07T10:50:31.293Z,13.82
2022-10-07T11:01:04.519Z,16.08
2022-10-07T11:04:02.010Z,13.93
2022-10-07T11:06:32.886Z,16.85
2022-10-07T11:09:02.547Z,17.50
2022-10-07T11:11:30.892Z,14.77
2022-10-07T11:14:01.974Z,15.38
2022-10-07T11:16:33.133Z,15.80
2022-10-07T11:19:08.273Z,16.67
2022-10-07T11:21:39.875Z,14.13
2022-10-07T11:24:15.542Z,13.48
2022-10-07T11:26:47.759Z,14.75
2022-10-07T11:29:23.815Z,15.98
2022-10-07T11:31:57.396Z,11.80
2022-10-07T11:34:36.094Z,13.35
2022-10-07T11:37:10.864Z,13.93
2022-10-07T11:39:39.399Z,11.63
2022-10-07T11:42:14.535Z,12.15
2022-10-07T11:44:57.088Z,14.57
2022-10-07T11:47:27.851Z,13.48
2022-10-07T11:50:03.108Z,13.45
2022-10-07T11:52:38.175Z,13.13
2022-10-07T11:55:41.351Z,11.63
2022-10-07T11:59:01.511Z,12.70
2022-10-07T12:02:15.831Z,11.55
2022-10-07T12:05:40.462Z,12.05
2022-10-07T12:08:46.360Z,10.48
2022-10-07T12:11:50.493Z,8.55
2022-10-07T12:14:36.658Z,11.73
2022-10-07T12:17:23.587Z,13.90
2022-10-07T12:20:29.556Z,15.18
2022-10-07T12:23:40.680Z,9.50
2022-10-07T12:26:51.305Z,9.75
2022-10-07T12:29:42.643Z,12.20
2022-10-07T12:32:42.609Z,10.20
2022-10-07T12:35:43.204Z,10.25
2022-10-07T12:38:20.330Z,12.35
2022-10-07T12:40:58.960Z,10.23
2022-10-07T12:43:49.885Z,8.75
2022-10-07T12:46:21.857Z,9.02
2022-10-07T12:49:01.082Z,9.57
2022-10-07T12:51:32.346Z,10.10
2022-10-07T12:54:01.498Z,11.57
2022-10-07T12:56:32.089Z,8.00
2022-10-07T12:59:50.357Z,8.55
2022-10-07T13:03:04.129Z,12.07
2022-10-07T13:06:14.000Z,7.85
2022-10-07T13:09:21.066Z,9.65
2022-10-07T13:12:14.592Z,10.07
2022-10-07T13:14:53.465Z,14.68
2022-10-07T13:17:36.470Z,8.80
2022-10-07T13:20:22.950Z,7.75
2022-10-07T13:22:51.394Z,10.95
2022-10-07T13:25:21.484Z,9.75
2022-10-07T13:27:56.396Z,10.90
2022-10-07T13:30:37.214Z,8.77
2022-10-07T13:33:35.250Z,10.95
2022-10-07T13:36:15.984Z,10.40
2022-10-07T13:38:46.327Z,12.70
2022-10-07T13:41:24.091Z,9.57
2022-10-07T13:43:59.264Z,14.35
2022-10-07T13:46:29.916Z,10.82
2022-10-07T13:49:00.233Z,12.52
2022-10-07T13:51:41.428Z,9.30
2022-10-07T13:54:20.682Z,14.82
2022-10-07T13:56:50.143Z,10.70
2022-10-07T13:59:20.806Z,7.85
2022-10-07T14:01:52.211Z,8.50
2022-10-07T14:04:26.223Z,10.15
2022-10-07T14:07:00.366Z,9.57
2022-10-07T14:09:38.247Z,7.40
2022-10-07T14:12:15.964Z,10.95
2022-10-07T14:14:47.734Z,8.10
2022-10-07T14:17:27.599Z,7.97
2022-10-07T14:19:59.174Z,6.43
2022-10-07T14:22:31.394Z,7.88
2022-10-07T14:25:02.638Z,9.85
2022-10-07T14:27:56.289Z,7.18
2022-10-07T14:30:53.325Z,9.65
2022-10-07T14:33:47.833Z,6.90
2022-10-07T14:36:18.122Z,7.55
2022-10-07T14:38:47.836Z,8.98
2022-10-07T14:41:25.461Z,7.30
2022-10-07T14:43:53.672Z,8.88
2022-10-07T14:46:25.472Z,6.68
2022-10-07T14:48:54.802Z,7.65
2022-10-07T14:51:25.165Z,6.80
2022-10-07T14:53:57.508Z,7.35
2022-10-07T14:56:28.569Z,7.93
2022-10-07T14:58:56.901Z,9.77
2022-10-07T15:01:28.273Z,10.85
2022-10-07T15:03:56.537Z,8.18
2022-10-07T15:06:25.030Z,6.63
2022-10-07T15:08:53.704Z,6.05
2022-10-07T15:11:22.806Z,6.28
2022-10-07T15:13:51.105Z,7.57
2022-10-07T15:16:21.995Z,7.55
2022-10-07T15:18:53.288Z,7.53
2022-10-07T15:21:22.089Z,6.10
2022-10-07T15:23:52.696Z,8.52
2022-10-07T15:26:24.407Z,7.80
2022-10-07T15:28:55.086Z,6.57
2022-10-07T15:31:24.713Z,8.27
2022-10-07T15:33:59.276Z,8.07
2022-10-07T15:36:29.051Z,8.40
2022-10-07T15:39:01.937Z,9.98
2022-10-07T15:41:33.370Z,8.50
2022-10-07T15:44:06.655Z,7.72
2022-10-07T15:46:34.989Z,7.70
2022-10-07T15:49:05.436Z,10.77
2022-10-07T15:51:35.543Z,8.90
2022-10-07T15:54:04.578Z,7.15
2022-10-07T15:56:32.829Z,8.40
2022-10-07T15:59:02.290Z,7.60
2022-10-07T16:01:32.024Z,6.47
2022-10-07T16:04:02.102Z,11.05
2022-10-07T16:06:33.221Z,8.60
2022-10-07T16:09:03.208Z,7.95
2022-10-07T16:11:33.354Z,11.75
2022-10-07T16:14:02.472Z,14.90
2022-10-07T16:16:59.839Z,10.95
2022-10-07T16:19:27.978Z,8.52
2022-10-07T16:22:00.155Z,9.02
2022-10-07T16:24:34.976Z,9.60
2022-10-07T16:27:08.480Z,12.50
2022-10-07T16:29:54.293Z,10.05
2022-10-07T16:32:24.143Z,14.20
2022-10-07T16:34:57.340Z,9.35
2022-10-07T16:38:10.114Z,9.85
2022-10-07T16:40:45.758Z,9.00
2022-10-07T16:43:32.495Z,9.10
2022-10-07T16:49:48.860Z,12.07
2022-10-07T16:52:33.363Z,10.65
2022-10-07T16:55:34.553Z,12.93
2022-10-07T16:58:04.378Z,10.57
2022-10-07T17:01:02.133Z,12.30
2022-10-07T17:04:00.337Z,12.23
2022-10-07T17:06:32.706Z,12.40
2022-10-07T17:09:04.212Z,14.68
2022-10-07T17:11:45.187Z,13.85
2022-10-07T17:14:32.609Z,13.63
2022-10-07T17:17:03.915Z,15.25
2022-10-07T17:22:55.984Z,15.85
2022-10-07T17:25:49.781Z,17.45
2022-10-07T17:29:31.178Z,15.60
2022-10-07T17:33:19.847Z,15.48
2022-10-07T17:35:55.542Z,15.48
2022-10-07T17:38:35.091Z,18.45
2022-10-07T17:41:28.519Z,15.10
2022-10-07T17:44:01.909Z,15.55
2022-10-07T17:46:32.574Z,15.60
2022-10-07T17:49:02.105Z,14.73
2022-10-07T17:51:36.472Z,17.77
2022-10-07T17:54:06.521Z,17.15
2022-10-07T17:56:35.672Z,22.88
2022-10-07T17:59:05.475Z,23.52
2022-10-07T18:01:35.147Z,17.77
2022-10-07T18:04:05.641Z,14.85
2022-10-07T18:06:35.053Z,18.83
2022-10-07T18:09:04.907Z,18.08
2022-10-07T18:11:54.015Z,16.80
2022-10-07T18:14:42.916Z,22.90
2022-10-07T18:17:12.026Z,23.00
2022-10-07T18:19:41.267Z,23.25
2022-10-07T18:22:10.360Z,16.95
2022-10-07T18:24:38.496Z,17.40
2022-10-07T18:27:07.254Z,18.00
2022-10-07T18:29:42.475Z,22.48
2022-10-07T18:32:19.207Z,15.63
2022-10-07T18:35:21.768Z,17.25
2022-10-07T18:37:53.014Z,18.38
2022-10-07T18:40:21.127Z,19.08
2022-10-07T18:54:46.603Z,19.25
2022-10-07T19:01:20.900Z,16.33
2022-10-07T19:06:46.683Z,17.65
2022-10-07T20:07:45.506Z,22.10
2022-10-07T20:27:05.076Z,19.75
2022-10-07T22:05:35.823Z,13.23
2022-10-07T22:09:10.571Z,13.07
2022-10-07T22:12:11.663Z,15.93
2022-10-07T22:17:33.138Z,11.80
2022-10-07T22:27:55.355Z,11.35
2022-10-07T22:30:24.938Z,15.25
2022-10-07T22:32:54.889Z,15.90
2022-10-07T22:35:30.177Z,15.32
2022-10-07T22:37:59.996Z,12.73
2022-10-07T22:40:31.082Z,15.00
2022-10-07T22:43:07.031Z,17.02
2022-10-07T22:45:36.851Z,13.32
2022-10-07T22:48:05.286Z,10.40
2022-10-07T22:50:33.884Z,11.55
2022-10-07T22:53:06.051Z,16.75
2022-10-07T22:56:15.650Z,12.02
2022-10-07T22:58:52.156Z,16.05
2022-10-07T23:04:14.006Z,11.20
2022-10-07T23:06:44.275Z,15.70
2022-10-07T23:09:16.723Z,15.77
2022-10-07T23:11:45.860Z,18.83
2022-10-07T23:14:15.637Z,17.38
2022-10-07T23:16:49.691Z,14.75
2022-10-07T23:19:26.531Z,16.88
2022-10-07T23:21:57.368Z,16.67
2022-10-07T23:24:29.599Z,15.68
2022-10-07T23:27:02.336Z,13.70
2022-10-07T23:29:46.074Z,13.55
2022-10-07T23:32:25.285Z,16.08
2022-10-07T23:34:54.034Z,15.38
2022-10-07T23:37:26.894Z,15.65
2022-10-07T23:39:55.193Z,17.20
2022-10-07T23:42:26.672Z,23.02
2022-10-07T23:45:03.350Z,19.58
2022-10-07T23:47:35.222Z,18.83
2022-10-07T23:50:09.437Z,18.55
2022-10-07T23:52:44.112Z,19.73
2022-10-07T23:55:20.803Z,17.83
2022-10-07T23:57:51.348Z,22.50
